CheckWX is a tool to help pilots better visualize weather data.  It is not intended as a substitute for an official pre-flight weather briefing.

20:21:05 UTC

KMHV METAR
Mojave Air and Space Port Airport
Mojave, California, USA
Current

41 mins ago

KMHV 231940Z AUTO 07011G18KT 10SM CLR 27/M07 A3003 RMK A01
Observed
Apr-23 @ 19:40 UTC
Wind
  • 070° at 11 KTS
  • Gusting to 18 KTS
Visibility
10 SM
Flight Rules
VFR
Cloud Levels
  • Clear skies
Temperature
27°C / 81°F
Dewpoint
-7°C / 19°F
Humidity
10%
Altimeter
30.03" Hg
Pressure
1016.92 hPa
Previous

1 hour ago

KMHV 231920Z AUTO 04014G23KT 10SM CLR 27/M06 A3003 RMK A01
Observed
Apr-23 @ 19:20 UTC
Wind
  • 040° at 14 KTS
  • Gusting to 23 KTS
Visibility
10 SM
Flight Rules
VFR
Cloud Levels
  • Clear skies
Temperature
27°C / 81°F
Dewpoint
-6°C / 21°F
Humidity
11%
Altimeter
30.03" Hg
Pressure
1016.92 hPa
Previous

1 hour ago

KMHV 231900Z AUTO 04014G22KT 10SM CLR 26/M05 A3004 RMK A01
Observed
Apr-23 @ 19:00 UTC
Wind
  • 040° at 14 KTS
  • Gusting to 22 KTS
Visibility
10 SM
Flight Rules
VFR
Cloud Levels
  • Clear skies
Temperature
26°C / 79°F
Dewpoint
-5°C / 23°F
Humidity
12%
Altimeter
30.04" Hg
Pressure
1017.32 hPa